createdAt,value
2022-11-12T00:00:18.459Z,22.50
2022-11-12T00:03:48.570Z,21.20
2022-11-12T00:07:10.284Z,24.50
2022-11-12T00:10:32.351Z,25.00
2022-11-12T00:13:53.880Z,14.90
2022-11-12T00:17:15.277Z,26.20
2022-11-12T00:20:37.012Z,22.90
2022-11-12T00:23:58.816Z,22.10
2022-11-12T00:27:20.436Z,23.60
2022-11-12T00:30:42.313Z,24.30
2022-11-12T00:34:04.055Z,23.90
2022-11-12T00:37:25.917Z,23.90
2022-11-12T00:40:47.668Z,24.10
2022-11-12T00:44:09.339Z,26.10
2022-11-12T00:47:30.923Z,25.30
2022-11-12T00:51:00.355Z,24.90
2022-11-12T00:54:22.042Z,20.50
2022-11-12T00:57:43.623Z,23.30
2022-11-12T01:01:11.615Z,22.90
2022-11-12T01:04:33.352Z,24.80
2022-11-12T01:07:56.181Z,21.00
2022-11-12T01:11:22.433Z,22.30
2022-11-12T01:14:43.916Z,21.70
2022-11-12T01:18:05.648Z,22.90
2022-11-12T01:21:30.054Z,21.30
2022-11-12T01:24:51.852Z,20.70
2022-11-12T01:28:13.664Z,21.60
2022-11-12T01:31:37.612Z,22.00
2022-11-12T01:34:59.423Z,22.60
2022-11-12T01:38:21.078Z,20.00
2022-11-12T01:41:42.742Z,22.20
2022-11-12T01:45:15.979Z,23.10
2022-11-12T01:48:45.433Z,24.30
2022-11-12T01:52:22.332Z,21.70
2022-11-12T01:55:43.718Z,21.10
2022-11-12T01:59:17.919Z,22.30
2022-11-12T02:02:40.666Z,23.10
2022-11-12T02:06:11.121Z,24.20
2022-11-12T02:09:33.434Z,25.90
2022-11-12T02:16:41.461Z,22.40
2022-11-12T02:20:03.897Z,25.00
2022-11-12T02:23:25.440Z,21.70
2022-11-12T02:26:51.388Z,20.20
2022-11-12T02:30:13.262Z,21.00
2022-11-12T02:33:34.844Z,18.90
2022-11-12T02:36:56.551Z,19.70
2022-11-12T02:40:18.103Z,22.00
2022-11-12T02:43:40.599Z,26.20
2022-11-12T02:47:01.801Z,26.20
2022-11-12T02:50:23.559Z,27.00
2022-11-12T02:53:44.989Z,28.60
2022-11-12T02:57:06.733Z,26.30
2022-11-12T03:00:28.442Z,26.30
2022-11-12T03:03:50.533Z,25.60
2022-11-12T03:07:12.072Z,22.50
2022-11-12T03:10:34.604Z,23.20
2022-11-12T03:17:17.546Z,23.10
2022-11-12T03:20:39.322Z,22.30
2022-11-12T03:24:01.799Z,23.60
2022-11-12T03:27:23.192Z,24.40
2022-11-12T03:30:45.309Z,22.10
2022-11-12T03:34:07.147Z,21.60
2022-11-12T03:37:28.737Z,21.90
2022-11-12T03:40:50.592Z,21.90
2022-11-12T03:44:12.251Z,23.20
2022-11-12T03:47:34.021Z,21.80
2022-11-12T03:50:59.950Z,20.90
2022-11-12T03:54:21.682Z,22.00
2022-11-12T03:57:44.183Z,22.30
2022-11-12T04:01:05.642Z,21.10
2022-11-12T04:04:47.166Z,19.30
2022-11-12T04:08:34.593Z,20.50
2022-11-12T04:12:15.984Z,20.90
2022-11-12T04:15:37.226Z,19.90
2022-11-12T04:19:20.428Z,21.50
2022-11-12T04:26:21.621Z,19.70
2022-11-12T04:30:02.443Z,19.90
2022-11-12T04:33:24.251Z,20.40
2022-11-12T04:36:46.030Z,21.10
2022-11-12T04:40:28.444Z,18.30
2022-11-12T04:44:08.957Z,20.30
2022-11-12T04:47:38.430Z,19.80
2022-11-12T04:51:02.449Z,19.70
2022-11-12T04:54:23.914Z,20.40
2022-11-12T04:57:45.532Z,21.70
2022-11-12T05:01:07.325Z,21.40
2022-11-12T05:04:29.355Z,20.70
2022-11-12T05:07:53.207Z,20.50
2022-11-12T05:11:14.947Z,18.80
2022-11-12T05:14:36.663Z,18.60
2022-11-12T05:17:58.389Z,17.60
2022-11-12T05:21:43.323Z,17.00
2022-11-12T05:25:06.539Z,17.20
2022-11-12T05:28:28.362Z,17.10
2022-11-12T05:31:50.351Z,17.10
2022-11-12T05:35:12.211Z,17.50
2022-11-12T05:38:33.830Z,16.70
2022-11-12T05:42:12.544Z,18.10
2022-11-12T05:45:35.393Z,18.40
2022-11-12T05:48:57.125Z,18.20
2022-11-12T05:52:18.936Z,19.00
2022-11-12T05:55:40.702Z,30.90
2022-11-12T05:59:04.888Z,26.90
2022-11-12T06:02:26.554Z,24.20
2022-11-12T06:05:48.308Z,19.80
2022-11-12T06:09:10.759Z,20.50
2022-11-12T06:12:32.312Z,19.50
2022-11-12T06:15:55.264Z,20.80
2022-11-12T06:22:38.162Z,16.70
2022-11-12T06:26:00.266Z,16.50
2022-11-12T06:29:21.768Z,16.20
2022-11-12T06:32:49.983Z,17.00
2022-11-12T06:36:14.094Z,16.70
2022-11-12T06:39:35.422Z,17.70
2022-11-12T06:42:58.698Z,18.60
2022-11-12T06:46:20.642Z,18.30
2022-11-12T06:49:42.164Z,15.90
2022-11-12T06:53:03.878Z,22.30
2022-11-12T06:56:25.759Z,20.30
2022-11-12T06:59:47.655Z,21.10
2022-11-12T07:03:10.071Z,19.80
2022-11-12T07:06:34.072Z,22.30
2022-11-12T07:09:55.913Z,22.60
2022-11-12T07:13:19.324Z,20.30
2022-11-12T07:16:41.118Z,22.00
2022-11-12T07:20:04.365Z,22.60
2022-11-12T07:23:26.330Z,21.90
2022-11-12T07:26:47.960Z,21.40
2022-11-12T07:30:10.110Z,23.20
2022-11-12T07:33:32.505Z,22.20
2022-11-12T07:36:53.805Z,21.20
2022-11-12T07:40:15.587Z,21.10
2022-11-12T07:43:38.947Z,21.70
2022-11-12T07:47:00.386Z,20.30
2022-11-12T07:50:22.116Z,21.40
2022-11-12T07:53:44.858Z,20.30
2022-11-12T08:00:27.778Z,15.70
2022-11-12T08:03:49.387Z,15.70
2022-11-12T08:07:11.276Z,16.20
2022-11-12T08:10:32.901Z,15.20
2022-11-12T08:13:54.455Z,14.00
2022-11-12T08:17:16.062Z,13.20
2022-11-12T08:20:38.086Z,12.70
2022-11-12T08:23:59.466Z,12.50
2022-11-12T08:27:21.316Z,11.90
2022-11-12T08:30:43.224Z,12.10
2022-11-12T08:34:12.367Z,12.40
2022-11-12T08:37:34.156Z,12.70
2022-11-12T08:40:55.764Z,12.70
2022-11-12T08:44:17.314Z,13.10
2022-11-12T08:47:39.083Z,14.40
2022-11-12T08:51:02.500Z,14.40
2022-11-12T08:54:24.813Z,14.20
2022-11-12T08:57:46.801Z,17.90
2022-11-12T09:01:09.353Z,14.60
2022-11-12T09:04:30.952Z,18.50
2022-11-12T09:08:07.857Z,14.70
2022-11-12T09:11:29.479Z,13.20
2022-11-12T09:14:53.476Z,13.40
2022-11-12T09:18:18.713Z,12.60
2022-11-12T09:21:40.291Z,13.10
2022-11-12T09:25:02.212Z,13.30
2022-11-12T09:28:27.505Z,13.90
2022-11-12T09:31:50.966Z,12.60
2022-11-12T09:35:12.773Z,12.00
2022-11-12T09:38:34.739Z,12.00
2022-11-12T09:42:01.737Z,12.00
2022-11-12T09:45:29.978Z,11.90
2022-11-12T09:49:02.821Z,11.50
2022-11-12T09:52:28.545Z,11.00
2022-11-12T09:55:51.282Z,11.20
2022-11-12T09:59:14.052Z,12.20
2022-11-12T10:02:45.669Z,11.90
2022-11-12T10:06:19.294Z,11.30
2022-11-12T10:09:53.771Z,10.30
2022-11-12T10:13:30.966Z,11.50
2022-11-12T10:17:02.431Z,11.10
2022-11-12T10:20:43.177Z,10.70
2022-11-12T10:24:09.862Z,8.80
2022-11-12T10:27:39.470Z,10.30
2022-11-12T10:31:14.014Z,10.40
2022-11-12T10:34:36.101Z,11.40
2022-11-12T10:38:04.660Z,9.90
2022-11-12T10:41:33.144Z,10.50
2022-11-12T10:45:24.039Z,11.10
2022-11-12T10:48:56.447Z,11.00
2022-11-12T10:52:41.192Z,10.30
2022-11-12T10:56:05.934Z,11.70
2022-11-12T10:59:27.427Z,11.20
2022-11-12T11:02:52.094Z,11.60
2022-11-12T11:06:16.596Z,11.80
2022-11-12T11:10:00.882Z,10.80
2022-11-12T11:13:28.236Z,8.70
2022-11-12T11:16:54.444Z,8.90
2022-11-12T11:20:29.051Z,8.60
2022-11-12T11:23:55.010Z,8.60
2022-11-12T11:27:32.355Z,26.60
2022-11-12T11:31:03.009Z,9.50
2022-11-12T11:34:49.643Z,9.20
2022-11-12T11:38:35.994Z,8.00
2022-11-12T11:42:03.680Z,8.60
2022-11-12T11:45:49.003Z,9.00
2022-11-12T11:49:58.014Z,8.30
2022-11-12T11:53:30.054Z,7.30
2022-11-12T11:56:58.685Z,9.00
2022-11-12T12:00:23.077Z,9.20
2022-11-12T12:03:44.409Z,8.30
2022-11-12T12:07:20.603Z,7.60
2022-11-12T12:11:11.551Z,7.60
2022-11-12T12:15:05.908Z,7.30
2022-11-12T12:18:30.356Z,6.90
2022-11-12T12:21:53.018Z,6.70
2022-11-12T12:25:23.843Z,6.40
2022-11-12T12:28:55.136Z,7.10
2022-11-12T12:32:24.483Z,6.70
2022-11-12T12:36:03.233Z,6.70
2022-11-12T12:40:00.255Z,7.30
2022-11-12T12:43:24.766Z,7.30
2022-11-12T12:46:52.637Z,7.20
2022-11-12T12:50:19.823Z,7.40
2022-11-12T12:53:41.379Z,7.80
2022-11-12T12:57:04.859Z,7.10
2022-11-12T13:00:38.338Z,7.40
2022-11-12T13:04:08.932Z,7.60
2022-11-12T13:07:48.647Z,7.50
2022-11-12T13:11:10.293Z,6.50
2022-11-12T13:14:34.786Z,7.80
2022-11-12T13:17:56.570Z,7.40
2022-11-12T13:21:20.789Z,7.00
2022-11-12T13:25:01.522Z,6.90
2022-11-12T13:28:23.408Z,5.70
2022-11-12T13:31:45.089Z,5.90
2022-11-12T13:35:27.266Z,6.50
2022-11-12T13:38:49.495Z,6.50
2022-11-12T13:42:37.206Z,6.10
2022-11-12T13:46:12.186Z,5.60
2022-11-12T13:49:35.442Z,5.70
2022-11-12T13:52:58.919Z,6.10
2022-11-12T13:56:31.873Z,5.50
2022-11-12T14:03:37.852Z,6.10
2022-11-12T14:07:47.619Z,6.00
2022-11-12T14:11:31.038Z,6.20
2022-11-12T14:15:42.612Z,6.30
2022-11-12T14:19:14.763Z,6.70
2022-11-12T14:22:43.993Z,5.30
2022-11-12T14:26:05.896Z,6.50
2022-11-12T14:29:32.957Z,5.80
2022-11-12T14:33:08.420Z,5.20
2022-11-12T14:36:30.695Z,5.80
2022-11-12T14:39:52.093Z,5.10
2022-11-12T14:43:46.843Z,5.10
2022-11-12T14:47:09.691Z,5.30
2022-11-12T14:50:39.054Z,6.00
2022-11-12T14:54:14.076Z,6.00
2022-11-12T14:57:36.023Z,6.50
2022-11-12T15:00:57.516Z,7.10
2022-11-12T15:04:21.877Z,7.70
2022-11-12T15:08:10.147Z,7.10
2022-11-12T15:11:47.487Z,8.70
2022-11-12T15:15:17.991Z,8.90
2022-11-12T15:18:40.473Z,9.00
2022-11-12T15:22:03.794Z,9.20
2022-11-12T15:25:32.647Z,9.10
2022-11-12T15:29:15.493Z,8.90
2022-11-12T15:32:36.998Z,10.40
2022-11-12T15:36:01.482Z,12.80
2022-11-12T15:39:25.906Z,12.10
2022-11-12T15:42:48.386Z,11.60
2022-11-12T15:46:15.622Z,10.90
2022-11-12T15:49:56.414Z,10.80
2022-11-12T15:53:18.696Z,11.70
2022-11-12T15:56:40.313Z,14.40
2022-11-12T16:00:08.455Z,13.20
2022-11-12T16:03:31.387Z,13.70
2022-11-12T16:06:53.008Z,16.50
2022-11-12T16:10:16.680Z,17.80
2022-11-12T16:13:38.539Z,16.30
2022-11-12T16:17:00.318Z,16.80
2022-11-12T16:20:25.256Z,16.60
2022-11-12T16:24:18.812Z,22.00
2022-11-12T16:27:41.132Z,21.00
2022-11-12T16:31:03.001Z,21.30
2022-11-12T16:34:25.906Z,20.50
2022-11-12T16:37:47.927Z,20.80
2022-11-12T16:41:11.985Z,22.10
2022-11-12T16:44:33.331Z,22.50
2022-11-12T16:47:56.158Z,18.40
2022-11-12T16:51:20.226Z,25.00
2022-11-12T16:54:42.738Z,24.90
2022-11-12T16:58:07.515Z,23.90
2022-11-12T17:01:31.392Z,20.50
2022-11-12T17:04:53.367Z,19.10
2022-11-12T17:08:17.967Z,17.90
2022-11-12T17:11:39.575Z,15.50
2022-11-12T17:15:01.873Z,14.60
2022-11-12T17:18:23.622Z,13.70
2022-11-12T17:21:45.222Z,14.40
2022-11-12T17:25:07.325Z,18.10
2022-11-12T17:28:30.486Z,17.40
2022-11-12T17:31:53.023Z,19.50
2022-11-12T17:35:15.399Z,19.20
2022-11-12T17:38:37.562Z,19.10
2022-11-12T17:41:59.762Z,18.70
2022-11-12T17:45:21.167Z,16.60
2022-11-12T17:48:42.963Z,15.30
2022-11-12T17:52:04.677Z,19.90
2022-11-12T17:55:26.364Z,22.00
2022-11-12T17:58:50.130Z,17.10
2022-11-12T18:02:12.538Z,26.80
2022-11-12T18:09:00.428Z,26.90
2022-11-12T18:12:21.922Z,24.50
2022-11-12T18:15:43.778Z,26.30
2022-11-12T18:19:05.264Z,26.40
2022-11-12T18:22:27.004Z,26.60
2022-11-12T18:25:48.785Z,28.80
2022-11-12T18:29:10.532Z,25.80
2022-11-12T18:32:32.368Z,23.40
2022-11-12T18:36:05.406Z,23.40
2022-11-12T18:39:27.570Z,21.20
2022-11-12T18:42:49.009Z,23.10
2022-11-12T18:46:11.381Z,24.30
2022-11-12T18:49:33.351Z,23.00
2022-11-12T18:52:55.352Z,21.10
2022-11-12T18:56:19.588Z,21.80
2022-11-12T18:59:41.433Z,20.90
2022-11-12T19:03:03.440Z,22.00
2022-11-12T19:06:25.385Z,20.50
2022-11-12T19:09:47.066Z,21.60
2022-11-12T19:13:08.623Z,22.00
2022-11-12T19:16:30.409Z,21.30
2022-11-12T19:19:52.109Z,22.00
2022-11-12T19:23:13.809Z,20.60
2022-11-12T19:26:35.272Z,21.30
2022-11-12T19:30:02.619Z,21.20
2022-11-12T19:33:25.775Z,21.70
2022-11-12T19:36:48.459Z,22.60
2022-11-12T19:40:14.779Z,20.30
2022-11-12T19:43:36.640Z,21.30
2022-11-12T19:46:58.732Z,21.10
2022-11-12T19:50:24.549Z,22.10
2022-11-12T19:53:46.370Z,21.80
2022-11-12T19:57:08.025Z,22.00
2022-11-12T20:00:29.993Z,23.20
2022-11-12T20:03:51.891Z,23.30
2022-11-12T20:07:13.960Z,24.90
2022-11-12T20:10:39.067Z,23.40
2022-11-12T20:14:00.853Z,25.70
2022-11-12T20:17:22.537Z,24.60
2022-11-12T20:20:56.215Z,23.70
2022-11-12T20:24:17.897Z,23.80
2022-11-12T20:27:39.672Z,28.10
2022-11-12T20:31:03.579Z,28.00
2022-11-12T20:34:25.152Z,30.90
2022-11-12T20:37:46.755Z,30.20
2022-11-12T20:41:14.059Z,30.10
2022-11-12T20:44:35.779Z,26.70
2022-11-12T20:47:57.470Z,28.80
2022-11-12T20:51:25.262Z,28.60
2022-11-12T20:54:47.196Z,27.70
2022-11-12T20:58:08.976Z,27.50
2022-11-12T21:01:30.939Z,29.10
2022-11-12T21:04:54.704Z,30.60
2022-11-12T21:08:16.314Z,30.20
2022-11-12T21:11:37.892Z,32.90
2022-11-12T21:15:00.228Z,33.30
2022-11-12T21:18:27.067Z,33.20
2022-11-12T21:21:48.795Z,30.30
2022-11-12T21:25:10.542Z,30.80
2022-11-12T21:28:34.998Z,28.80
2022-11-12T21:31:56.270Z,28.30
2022-11-12T21:35:18.402Z,29.50
2022-11-12T21:38:40.208Z,27.10
2022-11-12T21:42:01.840Z,25.80
2022-11-12T21:45:23.668Z,25.60
2022-11-12T21:48:48.239Z,26.10
2022-11-12T21:52:13.019Z,27.00
2022-11-12T21:55:34.810Z,26.10
2022-11-12T21:59:00.756Z,26.30
2022-11-12T22:02:22.764Z,25.80
2022-11-12T22:05:44.573Z,28.70
2022-11-12T22:09:06.356Z,28.50
2022-11-12T22:12:27.987Z,28.10
2022-11-12T22:15:50.719Z,32.90
2022-11-12T22:19:12.939Z,32.80
2022-11-12T22:22:34.669Z,35.10
2022-11-12T22:25:57.571Z,35.30
2022-11-12T22:29:19.275Z,36.40
2022-11-12T22:32:41.048Z,38.30
2022-11-12T22:36:05.348Z,37.80
2022-11-12T22:39:27.285Z,35.90
2022-11-12T22:42:48.864Z,34.00
2022-11-12T22:46:12.258Z,32.10
2022-11-12T22:49:33.702Z,33.30
2022-11-12T22:52:56.245Z,35.80
2022-11-12T22:56:18.035Z,34.50
2022-11-12T22:59:39.834Z,35.90
2022-11-12T23:03:01.379Z,34.00
2022-11-12T23:06:23.265Z,33.80
2022-11-12T23:09:45.067Z,36.70
2022-11-12T23:13:06.939Z,34.50
2022-11-12T23:16:30.708Z,36.20
2022-11-12T23:19:52.327Z,36.20
2022-11-12T23:23:14.224Z,35.80
2022-11-12T23:26:35.815Z,35.30
2022-11-12T23:29:57.367Z,35.70
2022-11-12T23:33:19.143Z,34.50
2022-11-12T23:36:40.957Z,32.30
2022-11-12T23:40:03.023Z,32.50
2022-11-12T23:43:24.551Z,29.80
2022-11-12T23:46:46.289Z,29.10
2022-11-12T23:50:08.435Z,29.10
2022-11-12T23:53:30.995Z,27.90
2022-11-12T23:56:52.544Z,27.50
